createdAt,value
2022-08-11T00:02:35.000Z,25.19
2022-08-11T00:07:35.000Z,28.89
2022-08-11T00:12:34.000Z,27.58
2022-08-11T00:17:34.000Z,26.9
2022-08-11T00:22:35.000Z,23.92
2022-08-11T00:27:35.000Z,24.09
2022-08-11T00:32:34.000Z,21.61
2022-08-11T00:37:35.000Z,21.16
2022-08-11T00:42:35.000Z,23.43
2022-08-11T00:47:35.000Z,27.04
2022-08-11T00:52:35.000Z,20.24
2022-08-11T00:57:48.000Z,17.33
2022-08-11T01:02:40.000Z,17.33
2022-08-11T01:08:13.000Z,16.13
2022-08-11T01:12:35.000Z,15.4
2022-08-11T01:17:35.000Z,12.59
2022-08-11T01:22:35.000Z,11.3
2022-08-11T01:27:35.000Z,8.08
2022-08-11T01:32:35.000Z,6.98
2022-08-11T01:37:34.000Z,5.31
2022-08-11T01:42:35.000Z,4.76
2022-08-11T01:47:35.000Z,4.49
2022-08-11T01:52:45.000Z,4.75
2022-08-11T01:57:35.000Z,6.31
2022-08-11T02:02:35.000Z,5.08
2022-08-11T02:07:34.000Z,5.93
2022-08-11T02:12:35.000Z,5.93
2022-08-11T02:17:35.000Z,9.32
2022-08-11T02:22:34.000Z,13.96
2022-08-11T02:27:34.000Z,15.02
2022-08-11T02:32:40.000Z,11.45
2022-08-11T02:37:35.000Z,8.81
2022-08-11T02:42:52.000Z,8.03
2022-08-11T02:47:37.000Z,6.01
2022-08-11T02:52:35.000Z,5.57
2022-08-11T03:02:35.000Z,6.05
2022-08-11T03:07:39.000Z,6.03
2022-08-11T03:12:35.000Z,6.03
2022-08-11T03:17:35.000Z,6.73
2022-08-11T03:22:35.000Z,7.02
2022-08-11T03:27:35.000Z,7.56
2022-08-11T03:37:35.000Z,9.5
2022-08-11T03:42:34.000Z,9.11
2022-08-11T03:47:34.000Z,9.31
2022-08-11T03:52:35.000Z,9.01
2022-08-11T03:57:35.000Z,9.84
2022-08-11T04:02:35.000Z,9.84
2022-08-11T04:07:35.000Z,8.97
2022-08-11T04:12:46.000Z,9.15
2022-08-11T04:17:34.000Z,10.54
2022-08-11T04:22:34.000Z,9.73
2022-08-11T04:27:47.000Z,10.27
2022-08-11T04:32:34.000Z,10.54
2022-08-11T04:37:35.000Z,10.53
2022-08-11T04:42:41.000Z,8.54
2022-08-11T04:47:35.000Z,9.02
2022-08-11T04:52:46.000Z,8.6
2022-08-11T04:57:34.000Z,9.03
2022-08-11T05:02:35.000Z,7.72
2022-08-11T05:07:34.000Z,7.72
2022-08-11T05:12:35.000Z,7.79
2022-08-11T05:17:35.000Z,7.79
2022-08-11T05:22:35.000Z,7.73
2022-08-11T05:27:34.000Z,6.65
2022-08-11T05:32:34.000Z,6.58
2022-08-11T05:37:37.000Z,8.4
2022-08-11T05:42:40.000Z,6.85
2022-08-11T05:47:35.000Z,6.84
2022-08-11T05:58:01.000Z,6.93
2022-08-11T06:02:34.000Z,6.93
2022-08-11T06:07:35.000Z,6.03
2022-08-11T06:12:35.000Z,5.37
2022-08-11T06:17:34.000Z,5.69
2022-08-11T06:22:35.000Z,5.77
2022-08-11T06:27:35.000Z,4.79
2022-08-11T06:32:35.000Z,5.83
2022-08-11T06:37:34.000Z,8.65
2022-08-11T06:42:35.000Z,4.81
2022-08-11T06:47:34.000Z,6.93
2022-08-11T06:52:46.000Z,6.66
2022-08-11T06:57:41.000Z,12.54
2022-08-11T07:02:41.000Z,8.1
2022-08-11T07:07:34.000Z,6.22
2022-08-11T07:12:35.000Z,6.22
2022-08-11T07:17:35.000Z,4.97
2022-08-11T07:22:35.000Z,5.34
2022-08-11T07:27:35.000Z,4.12
2022-08-11T07:32:35.000Z,3.88
2022-08-11T07:37:35.000Z,5.66
2022-08-11T07:42:35.000Z,5.59
2022-08-11T07:47:34.000Z,5.06
2022-08-11T07:52:35.000Z,5.4
2022-08-11T07:58:25.000Z,5.35
2022-08-11T08:02:39.000Z,5.07
2022-08-11T08:07:35.000Z,5.53
2022-08-11T08:12:35.000Z,12.81
2022-08-11T08:17:34.000Z,6.28
2022-08-11T08:22:49.000Z,4.76
2022-08-11T08:27:38.000Z,5.2
2022-08-11T08:32:34.000Z,5.2
2022-08-11T08:37:57.000Z,4.56
2022-08-11T08:42:35.000Z,7.01
2022-08-11T08:47:53.000Z,8
2022-08-11T08:52:49.000Z,11.71
2022-08-11T08:57:34.000Z,10.43
2022-08-11T09:02:45.000Z,6.21
2022-08-11T09:07:34.000Z,5.45
2022-08-11T09:12:56.000Z,7.22
2022-08-11T09:22:35.000Z,4.95
2022-08-11T09:27:35.000Z,6.1
2022-08-11T09:32:35.000Z,6.41
2022-08-11T09:38:06.000Z,8.5
2022-08-11T09:42:35.000Z,5.94
2022-08-11T09:47:35.000Z,8.96
2022-08-11T09:52:34.000Z,6.17
2022-08-11T09:57:35.000Z,6.84
2022-08-11T10:02:34.000Z,7.18
2022-08-11T10:07:35.000Z,7.39
2022-08-11T10:12:35.000Z,7.39
2022-08-11T10:17:35.000Z,6.38
2022-08-11T10:22:37.000Z,5.9
2022-08-11T10:28:43.000Z,4.84
2022-08-11T10:38:19.000Z,4.83
2022-08-11T10:43:05.000Z,5.6
2022-08-11T10:47:35.000Z,5.28
2022-08-11T10:52:35.000Z,4.34
2022-08-11T10:57:37.000Z,4.33
2022-08-11T11:02:34.000Z,5.06
2022-08-11T11:07:34.000Z,4.5
2022-08-11T11:12:34.000Z,5.04
2022-08-11T11:17:35.000Z,5.82
2022-08-11T11:22:34.000Z,5.16
2022-08-11T11:27:34.000Z,5.16
2022-08-11T11:32:35.000Z,5.13
2022-08-11T11:37:35.000Z,4.81
2022-08-11T11:42:35.000Z,5.15
2022-08-11T11:47:34.000Z,5.71
2022-08-11T11:52:35.000Z,5.66
2022-08-11T11:57:34.000Z,4.94
2022-08-11T12:02:34.000Z,5.42
2022-08-11T12:07:35.000Z,5.6
2022-08-11T12:12:34.000Z,5.52
2022-08-11T12:17:34.000Z,9.7
2022-08-11T12:22:35.000Z,4.77
2022-08-11T12:27:36.000Z,5.89
2022-08-11T12:37:34.000Z,5.6
2022-08-11T12:42:38.000Z,5.42
2022-08-11T12:47:35.000Z,5.9
2022-08-11T12:52:35.000Z,5.69
2022-08-11T12:57:47.000Z,6.77
2022-08-11T13:07:34.000Z,10.38
2022-08-11T13:12:35.000Z,6.05
2022-08-11T13:17:54.000Z,5.85
2022-08-11T13:22:35.000Z,6.03
2022-08-11T13:27:35.000Z,5.47
2022-08-11T13:32:35.000Z,11.22
2022-08-11T13:38:30.000Z,7.39
2022-08-11T13:42:34.000Z,7.39
2022-08-11T13:47:34.000Z,6.51
2022-08-11T13:52:35.000Z,6.57
2022-08-11T13:58:17.000Z,5.91
2022-08-11T14:02:40.000Z,6.76
2022-08-11T14:07:35.000Z,10.57
2022-08-11T14:12:35.000Z,9.03
2022-08-11T14:17:58.000Z,9.66
2022-08-11T14:22:35.000Z,9.02
2022-08-11T14:28:44.000Z,7.13
2022-08-11T14:37:35.000Z,7.02
2022-08-11T14:42:35.000Z,6.94
2022-08-11T14:47:35.000Z,6.02
2022-08-11T14:52:34.000Z,6.02
2022-08-11T14:58:06.000Z,7.52
2022-08-11T15:02:34.000Z,5.78
2022-08-11T15:07:34.000Z,7
2022-08-11T15:12:43.000Z,7.85
2022-08-11T15:17:53.000Z,7.92
2022-08-11T15:22:38.000Z,7.16
2022-08-11T15:27:35.000Z,6.96
2022-08-11T15:32:34.000Z,7.57
2022-08-11T15:37:35.000Z,6.78
2022-08-11T15:42:34.000Z,7.79
2022-08-11T15:47:35.000Z,8.33
2022-08-11T15:52:35.000Z,7.59
2022-08-11T15:57:34.000Z,9.83
2022-08-11T16:02:34.000Z,9.83
2022-08-11T16:07:36.000Z,8.91
2022-08-11T16:12:34.000Z,9.94
2022-08-11T16:17:35.000Z,13.11
2022-08-11T16:22:35.000Z,12.96
2022-08-11T16:27:35.000Z,17.52
2022-08-11T16:32:35.000Z,16.44
2022-08-11T16:37:35.000Z,15.8
2022-08-11T16:43:21.000Z,16.05
2022-08-11T16:48:47.000Z,17.28
2022-08-11T16:57:35.000Z,21.83
2022-08-11T17:02:35.000Z,20.07
2022-08-11T17:07:52.000Z,21.91
2022-08-11T17:12:35.000Z,25.51
2022-08-11T17:17:34.000Z,25.51
2022-08-11T17:22:34.000Z,25.35
2022-08-11T17:27:34.000Z,25.36
2022-08-11T17:32:36.000Z,24.46
2022-08-11T17:37:35.000Z,23.08
2022-08-11T17:42:34.000Z,25.96
2022-08-11T17:47:35.000Z,26.08
2022-08-11T17:52:35.000Z,26.07
2022-08-11T17:57:34.000Z,27.71
2022-08-11T18:02:45.000Z,26.44
2022-08-11T18:07:35.000Z,27.63
2022-08-11T18:12:34.000Z,35.02
2022-08-11T18:17:35.000Z,27.95
2022-08-11T18:22:35.000Z,22.65
2022-08-11T18:27:34.000Z,22.32
2022-08-11T18:32:56.000Z,22.2
2022-08-11T18:42:40.000Z,26.13
2022-08-11T18:47:39.000Z,25.24
2022-08-11T18:52:34.000Z,24.06
2022-08-11T18:57:35.000Z,24.77
2022-08-11T19:07:35.000Z,23.66
2022-08-11T19:12:35.000Z,25.58
2022-08-11T19:17:55.000Z,26.71
2022-08-11T19:22:34.000Z,25.18
2022-08-11T19:27:35.000Z,24.89
2022-08-11T19:32:35.000Z,25.88
2022-08-11T19:37:35.000Z,25.88
2022-08-11T19:42:34.000Z,23.45
2022-08-11T19:47:34.000Z,21.06
2022-08-11T19:52:34.000Z,20.5
2022-08-11T19:57:35.000Z,20.29
2022-08-11T20:02:35.000Z,22.87
2022-08-11T20:07:35.000Z,22.48
2022-08-11T20:12:35.000Z,21.64
2022-08-11T20:17:35.000Z,24.5
2022-08-11T20:22:35.000Z,34.5
2022-08-11T20:27:35.000Z,40.16
2022-08-11T20:32:35.000Z,37.69
2022-08-11T20:37:34.000Z,33.34
2022-08-11T20:42:40.000Z,28.67
2022-08-11T20:47:35.000Z,28.67
2022-08-11T20:52:35.000Z,24.93
2022-08-11T20:58:14.000Z,28.34
2022-08-11T21:02:35.000Z,30.97
2022-08-11T21:07:39.000Z,26.93
2022-08-11T21:12:38.000Z,31.93
2022-08-11T21:17:38.000Z,25.69
2022-08-11T21:22:38.000Z,19.86
2022-08-11T21:27:35.000Z,23.12
2022-08-11T21:32:34.000Z,25.77
2022-08-11T21:37:35.000Z,27.79
2022-08-11T21:42:35.000Z,29.7
2022-08-11T21:47:54.000Z,29.65
2022-08-11T21:52:35.000Z,29.7
2022-08-11T21:57:34.000Z,30.72
2022-08-11T22:02:35.000Z,30.72
2022-08-11T22:07:35.000Z,27.14
2022-08-11T22:12:54.000Z,20.86
2022-08-11T22:17:35.000Z,20.26
2022-08-11T22:22:36.000Z,21.04
2022-08-11T22:27:34.000Z,19.75
2022-08-11T22:32:35.000Z,22.82
2022-08-11T22:37:37.000Z,28.26
2022-08-11T22:42:44.000Z,22.59
2022-08-11T22:47:38.000Z,20.91
2022-08-11T22:52:35.000Z,20.56
2022-08-11T22:57:35.000Z,18.9
2022-08-11T23:02:34.000Z,20.21
2022-08-11T23:08:01.000Z,19.98
2022-08-11T23:12:35.000Z,17.97
2022-08-11T23:17:35.000Z,18.34
2022-08-11T23:27:34.000Z,20.45
2022-08-11T23:32:35.000Z,18.64
2022-08-11T23:37:34.000Z,17.82
2022-08-11T23:42:35.000Z,18.92
2022-08-11T23:47:35.000Z,18.92
2022-08-11T23:52:35.000Z,19.54
2022-08-11T23:57:34.000Z,19.23
